Time;durP1;ratioP1;P1;durP2;ratioP2;P2;SDS_P1;SDS_P2;PMS_P1;PMS_P2;Temp;Humidity;BMP_temperature;BMP_pressure;BME280_temperature;BME280_humidity;BME280_pressure;Samples;Min_cycle;Max_cycle;Signal;HPM_P1;HPM_P2
2024/03/31 00:00:21;;;;;;;30.15;18.90;;;3.90;99.90;;;-144.05;89.06;56976.28;5078405;28;20031;-80
2024/03/31 00:02:47;;;;;;;30.15;19.48;;;7.10;99.90;;;-144.05;88.84;56991.13;5062297;28;20016;-79
2024/03/31 00:05:14;;;;;;;32.63;21.25;;;8.00;99.90;;;-144.05;89.52;56952.91;5078083;28;20031;-79
2024/03/31 00:07:40;;;;;;;31.48;21.38;;;7.30;99.90;;;-144.05;89.29;56961.41;5080552;28;20089;-80
2024/03/31 00:10:06;;;;;;;32.85;22.40;;;6.50;99.90;;;-144.05;89.35;56955.03;5077563;28;20020;-79
2024/03/31 00:12:32;;;;;;;36.40;24.00;;;7.90;99.90;;;-144.05;89.16;56995.38;5079382;28;20116;-79
2024/03/31 00:14:58;;;;;;;31.85;22.10;;;;;;;-144.05;89.65;56982.66;5060130;28;20052;-79
2024/03/31 00:17:24;;;;;;;34.17;22.77;;;7.70;99.90;;;-144.05;89.76;56982.66;5077141;28;20020;-80
2024/03/31 00:19:50;;;;;;;35.28;23.77;;;;;;;-144.05;89.33;56986.91;5061537;28;20444;-80
2024/03/31 00:22:17;;;;;;;33.80;22.20;;;7.40;99.90;;;-144.05;89.41;56969.91;5081249;28;20040;-80
2024/03/31 00:24:43;;;;;;;31.67;21.90;;;7.50;99.90;;;-144.05;89.86;56984.78;5079773;28;20023;-81
2024/03/31 00:27:12;;;;;;;30.92;20.27;;;7.30;99.90;;;-144.05;89.51;56976.28;5082289;28;20426;-81
2024/03/31 00:29:39;;;;;;;34.08;23.98;;;;;;;-144.05;89.72;56993.25;5061714;28;20453;-80
2024/03/31 00:32:06;;;;;;;34.92;23.90;;;;;;;-144.05;89.75;56997.50;5071229;28;20033;-80
2024/03/31 00:34:32;;;;;;;33.95;23.45;;;4.10;99.90;;;-144.05;89.96;56963.53;5078235;28;20020;-80
2024/03/31 00:36:58;;;;;;;31.80;21.30;;;6.90;99.90;;;-144.05;89.69;56976.28;5059322;28;20081;-79
2024/03/31 00:39:24;;;;;;;33.95;21.15;;;6.30;99.90;;;-144.05;89.80;56969.91;5076365;28;20436;-80
2024/03/31 00:41:50;;;;;;;35.92;22.15;;;;;;;-144.05;89.74;56984.78;5080282;28;20030;-79
2024/03/31 00:44:16;;;;;;;35.10;23.25;;;6.60;99.90;;;-144.05;89.45;56961.41;5089815;28;20048;-79
2024/03/31 00:46:42;;;;;;;35.65;22.05;;;7.30;99.90;;;-144.05;89.66;56980.53;5083483;28;20028;-81
2024/03/31 00:49:08;;;;;;;36.33;24.90;;;;;;;-144.05;89.76;56991.13;5080611;28;20449;-77
2024/03/31 00:51:35;;;;;;;36.78;25.15;;;;;;;-144.05;89.54;56989.00;5061362;28;20102;-83
2024/03/31 00:54:01;;;;;;;32.33;21.85;;;7.50;99.90;;;-144.05;89.41;56978.41;5080787;28;20480;-80
2024/03/31 00:56:26;;;;;;;31.42;22.13;;;6.90;99.90;;;-144.05;89.48;56976.28;5081654;28;20051;-81
2024/03/31 00:58:53;;;;;;;31.45;22.98;;;;;;;-144.05;89.79;56957.16;5082920;28;20532;-78
2024/03/31 01:01:19;;;;;;;29.92;21.05;;;;;;;-144.05;89.81;56982.66;5083438;28;20111;-77
2024/03/31 01:03:45;;;;;;;30.20;20.15;;;7.10;99.90;;;-144.05;90.05;56972.03;5082488;28;20027;-80
2024/03/31 01:06:23;;;;;;;36.85;21.05;;;6.60;99.90;;;-144.05;90.40;56993.25;5080890;28;20024;-80
2024/03/31 01:08:53;;;;;;;30.77;20.40;;;7.30;99.90;;;-144.05;90.39;56982.66;5060023;28;20840;-80
2024/03/31 01:11:21;;;;;;;33.58;21.02;;;6.70;99.90;;;-144.05;90.11;56993.25;5079650;28;20497;-80
2024/03/31 01:13:49;;;;;;;33.58;20.55;;;6.60;99.90;;;-144.05;90.26;57006.00;5080170;28;20020;-79
2024/03/31 01:16:16;;;;;;;30.27;20.30;;;;;;;-144.05;90.11;56938.03;5082880;28;20401;-80
2024/03/31 01:18:43;;;;;;;30.60;19.15;;;6.70;99.90;;;-144.05;90.11;56967.78;5087727;28;20097;-81
2024/03/31 01:21:13;;;;;;;32.95;20.80;;;6.80;99.90;;;-144.05;90.54;56967.78;5080761;28;20700;-81
2024/03/31 01:23:44;;;;;;;35.03;21.63;;;7.50;99.90;;;-144.05;90.90;56991.13;5086519;28;20090;-79
2024/03/31 01:26:11;;;;;;;28.65;18.75;;;6.20;99.90;;;-144.05;90.73;56969.91;5091921;28;20432;-82
2024/03/31 01:28:37;;;;;;;29.23;20.33;;;6.70;99.90;;;-144.05;90.55;56984.78;5073550;28;20039;-81
2024/03/31 01:31:03;;;;;;;28.70;18.77;;;6.70;99.90;;;-144.05;90.79;56961.41;5081772;28;20111;-79
2024/03/31 01:33:29;;;;;;;35.55;22.55;;;6.60;99.90;;;-144.05;90.95;56986.91;5062725;28;20115;-78
2024/03/31 01:36:02;;;;;;;28.48;20.48;;;6.60;99.90;;;-144.05;90.80;56976.28;5081088;28;20430;-79
2024/03/31 01:38:28;;;;;;;31.13;20.70;;;;;;;-144.05;90.99;56984.78;5080099;28;20020;-80
2024/03/31 01:40:55;;;;;;;31.42;20.80;;;;;;;-144.05;91.08;56974.16;5062172;28;20484;-80
2024/03/31 01:43:21;;;;;;;36.00;20.67;;;;;;;-144.05;91.50;56980.53;5061271;28;20660;-80
2024/03/31 01:45:48;;;;;;;35.72;21.27;;;;;;;-144.05;91.23;56993.25;5081008;28;20096;-78
2024/03/31 01:48:14;;;;;;;34.33;21.95;;;;;;;-144.05;92.57;56997.50;5078972;28;20035;-81
2024/03/31 01:50:40;;;;;;;33.90;21.58;;;6.60;99.90;;;-144.05;91.78;56967.78;5062468;28;20500;-79
2024/03/31 01:53:06;;;;;;;31.85;20.52;;;6.30;99.90;;;-144.05;91.48;56957.16;5060873;28;20028;-80
2024/03/31 01:55:32;;;;;;;31.92;21.35;;;;;;;-144.05;90.79;56980.53;5079635;28;20021;-80
2024/03/31 01:57:58;;;;;;;40.13;22.25;;;;;;;-144.05;90.95;56967.78;5079128;28;20031;-82
2024/03/31 02:00:25;;;;;;;36.67;22.80;;;;;;;-144.05;90.88;56942.28;5078570;28;20501;-80
2024/03/31 02:02:50;;;;;;;35.33;22.73;;;7.50;99.90;;;-144.05;90.90;56963.53;5062185;28;20039;-80
2024/03/31 02:05:17;;;;;;;39.03;25.10;;;;;;;-144.05;91.08;56980.53;5078511;28;20112;-80
2024/03/31 02:07:42;;;;;;;40.22;25.48;;;7.10;99.90;;;-144.05;91.04;56980.53;5080668;28;20102;-80
2024/03/31 02:10:10;;;;;;;39.78;25.42;;;6.60;99.90;;;-144.05;91.08;56967.78;5058821;28;20055;-79
2024/03/31 02:12:38;;;;;;;34.63;22.45;;;6.80;99.90;;;-144.05;90.73;56965.66;5079269;28;20036;-79
2024/03/31 02:15:05;;;;;;;31.88;21.83;;;6.60;99.90;;;-144.05;90.59;56976.28;5078028;28;20040;-80
2024/03/31 02:17:31;;;;;;;32.25;21.70;;;7.40;99.90;;;-144.05;90.64;56959.28;5060236;28;20149;-81
2024/03/31 02:19:57;;;;;;;32.13;22.55;;;7.30;99.90;;;-144.05;90.75;56976.28;5073340;28;20154;-80
2024/03/31 02:22:23;;;;;;;32.85;22.27;;;7.50;99.90;;;-144.05;90.75;56972.03;5059142;28;20032;-79
2024/03/31 02:24:49;;;;;;;37.28;23.65;;;;;;;-144.05;90.85;56986.91;5061346;28;20031;-79
2024/03/31 02:27:16;;;;;;;33.10;22.70;;;;;;;-144.05;90.74;56961.41;5059219;28;20525;-79
2024/03/31 02:29:42;;;;;;;34.15;22.85;;;7.80;99.90;;;-144.05;90.49;56948.66;5079102;28;20028;-80
2024/03/31 02:32:08;;;;;;;33.72;22.40;;;;;;;-144.05;90.47;56946.53;5057061;28;20125;-80
2024/03/31 02:34:34;;;;;;;31.88;20.75;;;7.60;99.90;;;-144.05;90.67;56993.25;5078329;28;20025;-80
2024/03/31 02:37:00;;;;;;;31.48;20.67;;;4.00;99.90;;;-144.05;90.76;56952.91;5077823;28;20151;-78
2024/03/31 02:39:27;;;;;;;33.95;21.77;;;;;;;-144.05;90.64;56969.91;5058810;28;20396;-81
2024/03/31 02:41:53;;;;;;;38.50;22.70;;;7.90;99.90;;;-144.05;90.87;56986.91;5070451;28;20024;-80
2024/03/31 02:44:19;;;;;;;31.38;22.48;;;6.50;99.90;;;-144.05;90.90;56991.13;5076990;28;20032;-80
2024/03/31 02:46:45;;;;;;;36.80;23.58;;;7.90;99.90;;;-144.05;90.62;56959.28;5078672;28;20032;-81
2024/03/31 02:49:12;;;;;;;34.15;22.38;;;;;;;-144.05;90.69;56969.91;5058678;28;20024;-80
2024/03/31 02:51:37;;;;;;;39.85;24.33;;;7.50;99.90;;;-144.05;91.05;56946.53;5077989;28;20021;-82
2024/03/31 02:54:03;;;;;;;35.53;24.15;;;4.30;99.90;;;-144.05;91.23;56974.16;5076925;28;20028;-80
2024/03/31 02:56:29;;;;;;;36.42;25.15;;;6.40;99.90;;;-144.05;91.28;56957.16;5076651;28;20032;-80
2024/03/31 02:58:55;;;;;;;42.10;26.83;;;;;;;-144.05;91.20;56940.16;5059681;28;20384;-78
2024/03/31 03:01:21;;;;;;;44.17;28.33;;;6.90;99.90;;;-144.05;91.49;56963.53;5076332;28;20029;-79
2024/03/31 03:03:48;;;;;;;50.25;32.42;;;7.50;99.90;;;-144.05;92.14;56955.03;5062294;28;20035;-81
2024/03/31 03:06:14;;;;;;;47.88;32.30;;;7.10;99.90;;;-144.05;91.72;56967.78;5083044;28;20085;-80
2024/03/31 03:08:40;;;;;;;47.95;31.33;;;7.30;99.90;;;-144.05;91.46;56969.91;5059964;28;20409;-80
2024/03/31 03:11:06;;;;;;;40.88;26.05;;;7.30;99.90;;;-144.05;90.87;56961.41;5076427;28;20025;-81
2024/03/31 03:13:32;;;;;;;39.38;25.92;;;6.60;99.90;;;-144.05;90.37;56965.66;5057916;28;20090;-80
2024/03/31 03:16:05;;;;;;;41.35;27.92;;;6.40;99.90;;;-144.05;90.54;56965.66;5076422;28;20016;-80
2024/03/31 03:18:31;;;;;;;48.00;29.75;;;;;;;-144.05;89.92;56997.50;5076627;28;20024;-79
2024/03/31 03:20:58;;;;;;;47.63;29.58;;;;;;;-144.05;90.05;56967.78;5058419;28;20022;-79
2024/03/31 03:23:26;;;;;;;43.20;27.40;;;6.70;99.90;;;-144.05;89.84;56950.78;5064086;28;20114;-80
2024/03/31 03:25:59;;;;;;;40.78;27.17;;;8.30;99.90;;;-144.05;89.84;56967.78;5066279;28;20058;-81
2024/03/31 03:28:26;;;;;;;45.88;28.52;;;;;;;-144.05;89.74;56972.03;5075978;28;20078;-79
2024/03/31 03:30:52;;;;;;;45.33;28.00;;;;;;;-144.05;89.67;56952.91;5059377;28;20024;-80
2024/03/31 03:33:18;;;;;;;43.35;27.25;;;8.50;99.90;;;-144.05;89.28;56963.53;5061614;28;20020;-81
2024/03/31 03:35:45;;;;;;;44.70;29.15;;;;;;;-144.05;89.22;56972.03;5065236;28;20077;-81
2024/03/31 03:38:11;;;;;;;47.03;27.98;;;6.70;99.90;;;-144.05;89.15;56959.28;5089722;28;20155;-80
2024/03/31 03:40:37;;;;;;;43.92;26.80;;;6.40;99.90;;;-144.05;89.32;56942.28;5077873;28;20456;-81
2024/03/31 03:43:03;;;;;;;43.63;28.63;;;6.60;99.90;;;-144.05;89.35;56965.66;5075828;28;20118;-81
2024/03/31 03:45:28;;;;;;;41.10;28.27;;;7.00;99.90;;;-144.05;89.36;56963.53;5075461;28;20043;-81
2024/03/31 03:47:55;;;;;;;49.17;28.90;;;;;;;-144.05;89.77;56944.41;5075881;28;20024;-81
2024/03/31 03:50:21;;;;;;;47.20;30.42;;;6.90;99.90;;;-144.05;90.71;56995.38;5075456;28;20039;-80
2024/03/31 03:52:47;;;;;;;49.33;31.88;;;;;;;-144.05;90.61;56976.28;5076618;28;20033;-82
2024/03/31 03:55:13;;;;;;;48.63;30.75;;;7.00;99.90;;;-144.05;90.24;56963.53;5075892;28;20111;-82
2024/03/31 03:57:39;;;;;;;52.90;30.50;;;;;;;-144.05;89.83;56972.03;5077035;28;20052;-80
2024/03/31 04:00:06;;;;;;;52.33;30.27;;;;;;;-144.05;89.92;56989.00;5051114;28;20028;-83
2024/03/31 04:02:32;;;;;;;47.47;29.75;;;;;;;-144.05;89.64;56978.41;5058504;28;20423;-81
2024/03/31 04:04:58;;;;;;;52.88;30.85;;;;;;;-144.05;89.72;56950.78;5075187;28;20024;-80
2024/03/31 04:07:24;;;;;;;45.50;28.48;;;6.90;99.90;;;-144.05;89.93;56976.28;5075660;28;20493;-83
2024/03/31 04:09:50;;;;;;;45.55;29.52;;;;;;;-144.05;89.89;56942.28;5062438;28;20066;-81
2024/03/31 04:12:16;;;;;;;57.45;27.80;;;6.50;99.90;;;-144.05;89.67;56997.50;5083966;28;20086;-80
2024/03/31 04:14:42;;;;;;;43.72;24.55;;;10.50;99.90;;;-144.05;89.36;56959.28;5064621;28;20069;-79
2024/03/31 04:17:08;;;;;;;42.35;24.10;;;6.90;99.90;;;-144.05;88.83;56976.28;5078288;28;20035;-82
2024/03/31 04:19:34;;;;;;;39.25;23.70;;;7.40;99.90;;;-144.05;88.89;56961.41;5076596;28;20024;-83
2024/03/31 04:22:00;;;;;;;38.85;23.75;;;;;;;-144.05;88.83;56997.50;5077848;28;20036;-82
2024/03/31 04:24:26;;;;;;;37.47;23.08;;;10.70;99.90;;;-144.05;88.55;56976.28;5078452;28;20056;-81
2024/03/31 04:26:51;;;;;;;39.35;21.05;;;7.00;99.90;;;-144.05;88.76;56931.66;5082616;28;20040;-82
2024/03/31 04:29:17;;;;;;;33.75;20.08;;;7.30;99.90;;;-144.05;88.64;56938.03;5068858;28;20031;-84
2024/03/31 04:31:56;;;;;;;33.55;18.92;;;8.80;99.90;;;-144.05;88.08;56944.41;5071630;28;20051;-82
2024/03/31 04:34:26;;;;;;;33.92;19.52;;;7.20;99.90;;;-144.05;87.94;56993.25;5057186;28;20021;-82
2024/03/31 04:36:57;;;;;;;34.97;19.17;;;7.40;99.90;;;-144.05;88.02;56946.53;5074444;28;20115;-82
2024/03/31 04:39:24;;;;;;;34.58;19.67;;;6.90;99.90;;;-144.05;87.76;56963.53;5058276;28;20123;-82
2024/03/31 04:41:53;;;;;;;30.75;18.77;;;8.80;99.90;;;-144.05;87.85;56959.28;5075359;28;20042;-83
2024/03/31 04:44:19;;;;;;;35.92;19.95;;;7.50;99.90;;;-144.05;87.62;56959.28;5076478;28;20543;-84
2024/03/31 04:46:49;;;;;;;38.75;21.23;;;;;;;-144.05;87.61;56989.00;5071256;28;20029;-81
2024/03/31 04:49:19;;;;;;;30.50;18.70;;;7.10;99.90;;;-144.05;87.95;56948.66;5073057;28;20037;-82
2024/03/31 04:51:48;;;;;;;35.58;16.98;;;8.70;99.90;;;-144.05;88.38;56980.53;5071785;28;20039;-82
2024/03/31 04:54:16;;;;;;;27.77;14.55;;;11.00;99.90;;;-144.05;88.89;56965.66;5055092;28;20033;-80
2024/03/31 04:56:42;;;;;;;30.98;16.88;;;6.80;99.90;;;-144.05;88.49;56959.28;5056008;28;20398;-78
2024/03/31 04:59:08;;;;;;;27.10;15.80;;;;;;;-144.05;88.58;56931.66;5055130;28;20017;-81
2024/03/31 05:01:34;;;;;;;27.55;15.52;;;7.20;99.90;;;-144.05;88.69;56948.66;5073167;28;20021;-80
2024/03/31 05:04:00;;;;;;;27.58;15.18;;;6.70;99.90;;;-144.05;89.29;56957.16;5073776;28;20029;-82
2024/03/31 05:06:26;;;;;;;29.30;14.45;;;;;;;-144.05;90.17;56944.41;5073067;28;20381;-80
2024/03/31 05:08:52;;;;;;;25.65;14.25;;;10.70;99.90;;;-144.05;90.11;56955.03;5055469;28;20024;-82
2024/03/31 05:11:18;;;;;;;32.58;15.07;;;;;;;-144.05;90.24;56948.66;5072949;28;20025;-79
2024/03/31 05:13:44;;;;;;;27.83;14.85;;;;;;;-144.05;90.82;56944.41;5073538;28;20058;-81
2024/03/31 05:16:11;;;;;;;28.95;14.90;;;14.00;99.90;;;-144.05;91.14;56963.53;5072861;28;20150;-82
2024/03/31 05:18:38;;;;;;;32.45;15.70;;;7.00;99.90;;;-144.05;90.95;56944.41;5055021;28;20029;-82
2024/03/31 05:21:08;;;;;;;29.48;13.57;;;9.00;99.90;;;-144.05;91.40;56927.41;5071841;28;20031;-80
2024/03/31 05:23:38;;;;;;;25.73;13.02;;;7.50;99.90;;;-144.05;91.69;56969.91;5054485;28;20025;-78
2024/03/31 05:26:10;;;;;;;34.45;13.93;;;;;;;-144.05;91.21;56946.53;5053560;28;20028;-80
2024/03/31 05:28:36;;;;;;;32.10;13.07;;;7.00;99.90;;;-144.05;92.18;56957.16;5054756;28;20052;-82
2024/03/31 05:31:03;;;;;;;30.63;12.23;;;;;;;-144.05;91.48;56952.91;5069581;28;20024;-81
2024/03/31 05:33:31;;;;;;;26.20;12.93;;;6.80;99.90;;;-144.05;91.61;56961.41;5072388;28;20539;-82
2024/03/31 05:35:57;;;;;;;29.92;12.88;;;14.00;99.90;;;-144.05;91.76;56959.28;5073218;28;20501;-81
2024/03/31 05:38:23;;;;;;;27.20;11.13;;;;;;;-144.05;92.62;56957.16;5072461;28;20039;-80
2024/03/31 05:40:49;;;;;;;20.67;10.85;;;7.20;99.90;;;-144.05;93.20;56984.78;5072862;28;20489;-80
2024/03/31 05:43:15;;;;;;;30.67;11.23;;;;;;;-144.05;92.96;56959.28;5054124;28;20050;-82
2024/03/31 05:45:41;;;;;;;22.33;10.85;;;7.20;99.90;;;-144.05;92.89;56965.66;5057245;28;20032;-83
2024/03/31 05:48:10;;;;;;;27.58;11.32;;;9.50;99.90;;;-144.05;92.83;56948.66;5057727;28;20029;-82
2024/03/31 05:50:37;;;;;;;19.50;10.48;;;9.20;99.90;;;-144.05;93.44;56946.53;5074327;28;20024;-81
2024/03/31 05:53:04;;;;;;;25.75;11.82;;;14.30;99.90;;;-144.05;93.45;56967.78;5076059;28;20020;-81
2024/03/31 05:55:31;;;;;;;20.40;10.50;;;;;;;-144.05;92.74;56933.78;5075770;28;20579;-83
2024/03/31 05:57:58;;;;;;;23.10;10.43;;;8.20;99.90;;;-144.05;93.30;56935.91;5078692;28;20039;-81
2024/03/31 06:00:25;;;;;;;20.55;9.95;;;;;;;-144.05;92.54;56935.91;5068922;28;20029;-79
2024/03/31 06:02:52;;;;;;;22.85;11.43;;;8.20;99.90;;;-144.05;93.63;56946.53;5057670;28;20435;-81
2024/03/31 06:05:19;;;;;;;19.48;9.30;;;;;;;-144.05;92.76;56948.66;5057440;28;20025;-82
2024/03/31 06:07:50;;;;;;;19.73;9.57;;;9.30;99.90;;;-144.05;93.03;56984.78;5057616;28;20440;-81
2024/03/31 06:10:18;;;;;;;18.88;8.27;;;;;;;-144.05;93.87;56978.41;5057017;28;20103;-83
2024/03/31 06:12:44;;;;;;;20.73;9.13;;;;;;;-144.05;93.91;56931.66;5074789;28;20063;-82
2024/03/31 06:15:10;;;;;;;24.38;9.93;;;7.40;99.90;;;-144.05;93.81;56948.66;5074696;28;20115;-83
2024/03/31 06:17:39;;;;;;;22.52;9.25;;;7.90;99.90;;;-144.05;93.40;56955.03;5074893;28;20478;-82
2024/03/31 06:20:07;;;;;;;16.25;7.60;;;7.70;99.90;;;-144.05;92.64;56967.78;5071132;28;20071;-84
2024/03/31 06:22:41;;;;;;;18.80;7.97;;;;;;;-144.05;92.74;56916.81;5075914;28;20481;-83
2024/03/31 06:25:09;;;;;;;26.45;8.95;;;10.40;99.90;;;-144.05;92.26;56938.03;5049310;28;20020;-81
2024/03/31 06:27:36;;;;;;;19.50;7.75;;;;;;;-144.05;92.84;56948.66;5074407;28;20162;-80
2024/03/31 06:30:04;;;;;;;17.20;7.30;;;9.50;99.90;;;-144.05;93.08;56991.13;5074072;28;20024;-80
2024/03/31 06:32:30;;;;;;;16.17;7.57;;;;;;;-144.05;93.72;56984.78;5056644;28;20044;-82
2024/03/31 06:34:56;;;;;;;13.98;7.55;;;;;;;-144.05;93.33;56938.03;5056821;28;20029;-84
2024/03/31 06:37:22;;;;;;;21.48;7.18;;;;;;;-144.05;93.98;56963.53;5056373;28;20107;-81
2024/03/31 06:39:49;;;;;;;14.73;7.72;;;;;;;-144.05;93.57;56965.66;5074984;28;20028;-82
2024/03/31 06:42:16;;;;;;;22.30;8.05;;;7.90;99.90;;;-144.05;93.57;56940.16;5073865;28;20102;-82
2024/03/31 06:44:43;;;;;;;15.77;6.97;;;7.70;99.90;;;-144.05;93.21;56931.66;5056238;28;20485;-82
2024/03/31 06:47:10;;;;;;;12.88;6.43;;;7.50;99.90;;;-144.05;92.77;56938.03;5055813;28;20021;-82
2024/03/31 06:49:36;;;;;;;21.02;7.88;;;7.80;99.90;;;-144.05;92.38;56965.66;5072421;28;20025;-79
2024/03/31 06:52:03;;;;;;;10.35;6.15;;;7.30;99.90;;;-144.05;92.24;56952.91;5055670;28;20101;-81
2024/03/31 06:54:30;;;;;;;15.93;6.30;;;7.70;99.90;;;-144.05;92.01;56952.91;5056871;28;20431;-80
2024/03/31 06:56:56;;;;;;;15.63;5.82;;;8.50;99.90;;;-144.05;91.81;56925.28;5065697;28;20413;-81
2024/03/31 06:59:21;;;;;;;19.27;6.10;;;7.90;99.90;;;-144.05;91.93;56963.53;5080831;28;20009;-83
2024/03/31 07:01:48;;;;;;;18.17;6.00;;;;;;;-144.05;92.01;56946.53;5091489;28;20021;-83
2024/03/31 07:04:15;;;;;;;16.92;5.32;;;;;;;-144.05;91.85;56955.03;5078591;28;20043;-85
2024/03/31 07:06:42;;;;;;;11.23;4.75;;;7.50;99.90;;;-144.05;91.73;56942.28;5055963;28;20036;-84
2024/03/31 07:09:08;;;;;;;11.45;4.50;;;7.40;99.90;;;-144.05;91.03;56950.78;5055817;28;20031;-83
2024/03/31 07:11:34;;;;;;;16.90;4.78;;;;;;;-144.05;90.79;56950.78;5073473;28;20502;-85
2024/03/31 07:14:00;;;;;;;14.07;4.47;;;;;;;-144.05;90.16;56957.16;5055675;28;20508;-84
2024/03/31 07:16:27;;;;;;;14.70;4.43;;;;;;;-144.05;89.28;56950.78;5073324;28;20024;-81
2024/03/31 07:18:53;;;;;;;16.77;4.90;;;;;;;-144.05;88.83;56938.03;5073332;28;20038;-84
2024/03/31 07:21:19;;;;;;;17.02;4.47;;;8.20;99.90;;;-144.05;88.43;56942.28;5054965;28;20036;-83
2024/03/31 07:23:45;;;;;;;16.52;4.00;;;14.00;99.90;;;-144.05;88.30;56940.16;5055217;28;20116;-79
2024/03/31 07:26:14;;;;;;;9.98;3.95;;;14.50;99.90;;;-144.05;88.54;56933.78;5073136;28;20496;-83
2024/03/31 07:28:40;;;;;;;14.30;4.20;;;7.80;99.90;;;-144.05;87.69;56952.91;5072831;28;20115;-84
2024/03/31 07:31:06;;;;;;;14.50;3.50;;;;;;;-144.05;86.40;56955.03;5057687;28;20371;-84
2024/03/31 07:33:32;;;;;;;10.73;3.55;;;;;;;-144.05;85.02;56959.28;5093085;28;20032;-82
2024/03/31 07:35:58;;;;;;;13.18;3.33;;;8.00;99.90;;;-144.05;84.75;56938.03;5098203;28;20024;-82
2024/03/31 07:38:25;;;;;;;12.88;3.28;;;;;;;-144.05;84.06;56955.03;5079033;28;20400;-80
2024/03/31 07:40:51;;;;;;;9.02;2.75;;;;;;;-144.05;82.14;56969.91;5096653;28;20032;-80
2024/03/31 07:43:23;;;;;;;7.15;2.60;;;14.70;99.90;;;-144.05;82.29;56955.03;5098148;28;20047;-82
2024/03/31 07:45:49;;;;;;;10.25;2.45;;;8.40;99.90;;;-144.05;82.32;56931.66;5096948;28;20047;-82
2024/03/31 07:48:15;;;;;;;8.65;2.72;;;8.50;99.90;;;-144.05;82.63;56942.28;5073836;28;20021;-76
2024/03/31 07:50:41;;;;;;;10.82;3.67;;;14.80;99.90;;;-144.05;81.64;56946.53;5075373;28;20493;-79
2024/03/31 07:53:07;;;;;;;9.73;3.10;;;8.90;99.90;;;-144.05;81.22;56955.03;5070893;28;20073;-81
2024/03/31 07:55:33;;;;;;;8.88;2.67;;;;;;;-144.05;81.55;56912.56;5079310;28;20028;-79
2024/03/31 07:57:59;;;;;;;8.15;2.80;;;14.60;99.90;;;-144.05;81.85;56942.28;5089375;28;20416;-80
2024/03/31 08:00:25;;;;;;;5.50;2.13;;;9.00;99.90;;;-144.05;80.84;56933.78;5110170;28;20027;-80
2024/03/31 08:02:51;;;;;;;6.07;2.10;;;;;;;-144.05;79.80;56942.28;5103559;28;20024;-86
2024/03/31 08:05:18;;;;;;;10.80;2.85;;;14.70;99.90;;;-144.05;79.17;56946.53;5079529;28;20035;-82
2024/03/31 08:07:44;;;;;;;9.93;2.42;;;15.10;99.90;;;-144.05;77.50;56942.28;5078343;28;20089;-80
2024/03/31 08:10:10;;;;;;;7.20;2.35;;;;;;;-144.05;78.02;56916.81;5097755;28;20036;-78
2024/03/31 08:12:36;;;;;;;9.93;2.10;;;;;;;-144.05;78.35;56916.81;5098320;28;20032;-83
2024/03/31 08:15:03;;;;;;;10.48;2.70;;;10.30;99.90;;;-144.05;76.86;56938.03;5078151;28;20032;-78
2024/03/31 08:17:29;;;;;;;6.65;2.42;;;15.10;99.90;;;-144.05;75.58;56931.66;5089475;28;20057;-82
2024/03/31 08:19:56;;;;;;;11.15;2.55;;;10.00;99.90;;;-144.05;75.27;56946.53;5097334;28;20397;-82
2024/03/31 08:22:22;;;;;;;11.23;2.20;;;;;;;-144.05;74.10;56923.19;5073715;28;20073;-77
2024/03/31 08:24:48;;;;;;;9.27;2.45;;;;;;;-144.05;72.99;56933.78;5086446;28;20020;-76
2024/03/31 08:27:15;;;;;;;5.78;2.08;;;15.10;99.90;;;-144.05;72.00;56927.41;5095133;28;20023;-76
2024/03/31 08:29:42;;;;;;;6.63;2.63;;;;;;;-144.05;68.66;56929.53;5076396;28;20043;-76
2024/03/31 08:32:07;;;;;;;9.70;2.17;;;12.10;99.90;;;-144.05;67.58;56946.53;5095047;28;20024;-78
2024/03/31 08:34:33;;;;;;;10.10;2.38;;;17.00;99.90;;;-144.05;64.68;56959.28;5069606;28;20141;-79
2024/03/31 08:37:00;;;;;;;6.53;1.67;;;13.40;99.90;;;-144.05;64.82;56974.16;5094861;28;20028;-77
2024/03/31 08:39:26;;;;;;;7.22;2.17;;;17.60;99.90;;;-144.05;63.72;56942.28;5094534;28;20032;-77
2024/03/31 08:42:26;;;;;;;6.95;2.25;;;17.70;99.90;;;-144.05;63.77;56940.16;5094211;28;20020;-77
2024/03/31 08:44:55;;;;;;;11.27;2.67;;;13.70;99.90;;;-144.05;61.30;56959.28;5059405;28;20036;-79
2024/03/31 08:47:34;;;;;;;9.75;2.15;;;16.70;99.90;;;-144.05;61.66;56959.28;5095641;28;20500;-80
2024/03/31 08:50:00;;;;;;;10.65;1.92;;;;;;;-144.05;60.43;56967.78;5094360;28;20482;-78
2024/03/31 08:52:27;;;;;;;9.32;1.90;;;17.90;99.90;;;-144.05;60.40;56959.28;5077208;28;20024;-79
2024/03/31 08:54:58;;;;;;;6.43;1.42;;;14.10;99.90;;;-144.05;61.14;56946.53;5094177;28;20116;-77
2024/03/31 08:57:24;;;;;;;7.25;1.67;;;14.00;99.90;;;-144.05;60.10;56942.28;5094931;28;20024;-75
2024/03/31 08:59:50;;;;;;;10.63;1.98;;;13.10;99.90;;;-144.05;59.67;56957.16;5091387;28;20039;-77
2024/03/31 09:02:24;;;;;;;12.13;2.33;;;17.80;99.90;;;-144.05;59.80;56969.91;5093794;28;20103;-80
2024/03/31 09:04:52;;;;;;;15.32;2.45;;;17.40;99.90;;;-144.05;60.67;56957.16;5075650;28;20035;-80
2024/03/31 09:07:19;;;;;;;7.63;1.58;;;17.50;99.90;;;-144.05;59.23;56942.28;5092969;28;20054;-78
2024/03/31 09:09:46;;;;;;;5.93;2.42;;;13.10;99.90;;;-144.05;60.79;56933.78;5092461;28;20564;-78
2024/03/31 09:12:12;;;;;;;4.82;1.63;;;13.60;99.90;;;-144.05;60.31;56952.91;5093294;28;20107;-78
2024/03/31 09:14:41;;;;;;;12.52;2.38;;;17.70;99.90;;;-144.05;59.55;56948.66;5094739;28;20081;-82
2024/03/31 09:17:13;;;;;;;8.27;1.35;;;18.50;99.90;;;-144.05;58.41;56974.16;5092982;28;20231;-77
2024/03/31 09:19:40;;;;;;;9.07;1.98;;;18.00;99.90;;;-144.05;56.91;56921.06;5094843;28;20225;-88
2024/03/31 09:22:07;;;;;;;7.10;2.20;;;;;;;-144.05;58.15;56946.53;5080610;28;20028;-78
2024/03/31 09:24:34;;;;;;;6.60;1.83;;;17.50;99.90;;;-144.05;56.08;56944.41;5073691;28;20124;-83
2024/03/31 09:27:00;;;;;;;9.48;2.03;;;19.00;99.90;;;-144.05;55.43;56959.28;5077730;28;20031;-82
2024/03/31 09:29:27;;;;;;;9.65;1.90;;;17.90;99.90;;;-144.05;54.03;56963.53;5078340;28;20520;-81
2024/03/31 09:32:09;;;;;;;11.65;2.17;;;18.90;99.90;;;-144.05;53.57;56989.00;5095975;28;20082;-80
2024/03/31 09:34:35;;;;;;;7.38;1.73;;;19.10;99.90;;;-144.05;52.94;56967.78;5097132;28;20055;-81
2024/03/31 09:37:02;;;;;;;10.45;1.63;;;15.30;99.90;;;-144.05;52.05;56957.16;5079018;28;20493;-79
2024/03/31 09:39:29;;;;;;;6.68;1.38;;;;;;;-144.05;52.29;56942.28;5084078;28;20024;-83
2024/03/31 09:41:56;;;;;;;10.93;2.13;;;18.30;99.90;;;-144.05;52.55;56961.41;5079165;28;20066;-78
2024/03/31 09:44:22;;;;;;;9.77;1.90;;;19.80;99.90;;;-144.05;50.60;56972.03;5106798;28;20079;-79
2024/03/31 09:46:49;;;;;;;11.02;1.98;;;19.90;99.90;;;-144.05;49.91;56976.28;5109517;28;20032;-78
2024/03/31 09:49:31;;;;;;;9.63;1.67;;;18.90;99.90;;;-144.05;50.29;56969.91;5096809;28;20089;-78
2024/03/31 09:52:02;;;;;;;9.50;2.35;;;19.20;99.90;;;-144.05;47.82;56957.16;5094875;28;20461;-79
2024/03/31 09:54:44;;;;;;;10.65;1.88;;;18.40;99.90;;;-144.05;48.71;56969.91;5095198;28;20401;-80
2024/03/31 09:57:19;;;;;;;9.52;1.98;;;19.40;99.90;;;-144.05;48.59;56978.41;5095234;28;20045;-80
2024/03/31 10:00:00;;;;;;;9.30;1.90;;;15.60;99.90;;;-144.05;49.27;56984.78;5095864;28;20032;-81
2024/03/31 10:02:27;;;;;;;7.25;1.67;;;19.30;99.90;;;-144.05;48.87;56984.78;5089880;28;20035;-80
2024/03/31 10:05:16;;;;;;;11.23;1.63;;;19.60;99.90;;;-144.05;44.69;56984.78;5093814;28;20042;-80
2024/03/31 10:07:44;;;;;;;7.93;1.48;;;19.60;99.90;;;-144.05;42.09;56982.66;5078033;28;20154;-81
2024/03/31 10:10:12;;;;;;;7.50;1.42;;;;;;;-144.05;40.93;56980.53;5094322;28;20103;-81
2024/03/31 10:12:40;;;;;;;10.75;1.52;;;19.60;99.90;;;-144.05;41.65;56978.41;5094815;28;20031;-79
2024/03/31 10:15:07;;;;;;;7.38;1.98;;;20.50;99.90;;;-144.05;40.78;56978.41;5074501;28;20511;-80
2024/03/31 10:17:36;;;;;;;8.40;2.30;;;20.70;99.90;;;-144.05;39.96;57001.75;5078323;28;20036;-80
2024/03/31 10:20:04;;;;;;;9.55;1.73;;;20.60;99.90;;;-144.05;40.74;57008.13;5092764;28;20096;-82